»·PEaware :: N982JS KAPV-KBFL

N982JS :: KAPV-KBFL

FLIGHT INFORMATION

Flight Status: Arrived
Operator: Privately registered:
United States
More flights under this callsign
Pilot: Justin S. (9599)
Aircraft: PIPER PA-18 SUPER CUB
(PA18)
More flights by this aircraft type
Origin: KAPV Apple Valley
United States
Destination: KBFL Meadows
United States
More flights between these airports :: More routes between these airports
Route:
File this flight plan on PilotEdge
Remarks:
Altitude:
(Current/Filed)
6,500ft
Speed:
(Current/Filed)
100kts
Departed: 08-Oct-17 07:50 PM
Arrived: 08-Oct-17 09:18 PM
Distance/Time
Traveled:
105nm/1:28
Distance/Time
To Go:
Arrived

Flight Plot

Page will automatically refresh every two minutes.


Map Options




Map Legend


Flown Route
Filed Route
Departure Airport
Arrival Airport
Navaid (VOR, NDB)
Fix

Horizontal Profiles

Position Reports

Time Latitude Longitude Heading Altitude Ground
Speed
08-Oct-17 19:38 34.574006 -117.189637 269 3005ft 0kts
08-Oct-17 19:39 34.574006 -117.189637 269 3005ft 0kts
08-Oct-17 19:40 34.574006 -117.189637 269 3005ft 0kts
08-Oct-17 19:41 34.574006 -117.189637 269 3005ft 0kts
08-Oct-17 19:42 34.574006 -117.189637 269 3005ft 0kts
08-Oct-17 19:43 34.574006 -117.189637 267 3005ft 0kts
08-Oct-17 19:44 34.574006 -117.189637 267 3005ft 0kts
08-Oct-17 19:45 34.573943 -117.189825 217 3005ft 2kts
08-Oct-17 19:46 34.573421 -117.189863 191 3005ft 2kts
08-Oct-17 19:47 34.572575 -117.189318 327 3005ft 0kts
08-Oct-17 19:48 34.572647 -117.189618 192 3005ft 0kts
08-Oct-17 19:49 34.572327 -117.190002 215 3005ft 2kts
08-Oct-17 19:50 34.570965 -117.189936 126 3005ft 11kts
08-Oct-17 19:51 34.570256 -117.186129 97 3005ft 21kts
08-Oct-17 19:52 34.570084 -117.180523 163 3005ft 0kts
08-Oct-17 19:53 34.569506 -117.183409 262 3063ft 36kts
08-Oct-17 19:54 34.570792 -117.200603 277 3685ft 52kts
08-Oct-17 19:55 34.571347 -117.215104 267 4168ft 69kts
08-Oct-17 19:56 34.582281 -117.233810 325 4504ft 78kts
08-Oct-17 19:57 34.601739 -117.237462 33 5049ft 102kts
08-Oct-17 19:58 34.621839 -117.217802 39 5659ft 90kts
08-Oct-17 19:59 34.643217 -117.218155 332 6289ft 75kts
08-Oct-17 20:00 34.662888 -117.229765 320 6781ft 78kts
08-Oct-17 20:01 34.678704 -117.249209 310 7246ft 84kts
08-Oct-17 20:02 34.694034 -117.271612 294 7519ft 87kts
08-Oct-17 20:03 34.700170 -117.301078 292 7560ft 96kts
08-Oct-17 20:04 34.715358 -117.325450 311 7856ft 84kts
08-Oct-17 20:05 34.727785 -117.350954 282 7978ft 89kts
08-Oct-17 20:06 34.734880 -117.379384 288 8164ft 90kts
08-Oct-17 20:07 34.736704 -117.407314 263 8429ft 90kts
08-Oct-17 20:08 34.735396 -117.438186 265 8456ft 92kts
08-Oct-17 20:09 34.737212 -117.468177 280 8626ft 83kts
08-Oct-17 20:10 34.743789 -117.496976 271 8682ft 90kts
08-Oct-17 20:11 34.745199 -117.527784 274 8724ft 92kts
08-Oct-17 20:12 34.746989 -117.558114 265 8815ft 91kts
08-Oct-17 20:13 34.744549 -117.585965 8 7928ft 151kts
08-Oct-17 20:14 34.734912 -117.581144 342 6957ft 139kts
08-Oct-17 20:16 34.733251 -117.592218 273 6154ft 83kts
08-Oct-17 20:17 34.740437 -117.617221 279 6599ft 77kts
08-Oct-17 20:18 34.744988 -117.642119 279 7092ft 68kts
08-Oct-17 20:19 34.751608 -117.659486 277 7297ft 73kts
08-Oct-17 20:20 34.756295 -117.683676 276 7532ft 79kts
08-Oct-17 20:21 34.760110 -117.712258 271 7288ft 84kts
08-Oct-17 20:22 34.762122 -117.741854 265 7088ft 85kts
08-Oct-17 20:23 34.762404 -117.768646 267 7285ft 76kts
08-Oct-17 20:24 34.764177 -117.793994 270 7666ft 72kts
08-Oct-17 20:25 34.765908 -117.817205 268 8111ft 70kts
08-Oct-17 20:26 34.770570 -117.841924 270 8351ft 73kts
08-Oct-17 20:27 34.771516 -117.867097 266 8573ft 73kts
08-Oct-17 20:28 34.773653 -117.892988 267 8686ft 76kts
08-Oct-17 20:28 34.774162 -117.914441 261 8800ft 76kts
08-Oct-17 20:30 34.778824 -117.946106 302 8663ft 92kts
08-Oct-17 20:30 34.795368 -117.964219 308 8495ft 93kts
08-Oct-17 20:32 34.819220 -117.988652 310 8222ft 105kts
08-Oct-17 20:33 34.839624 -118.012408 312 7809ft 104kts
08-Oct-17 20:33 34.859560 -118.029285 320 7456ft 104kts
08-Oct-17 20:34 34.878211 -118.052070 284 7248ft 94kts
08-Oct-17 20:35 34.883851 -118.082819 267 7014ft 90kts
08-Oct-17 20:36 34.896178 -118.108743 319 6713ft 105kts
08-Oct-17 20:37 34.923445 -118.121375 346 6425ft 104kts
08-Oct-17 20:38 34.949567 -118.129086 330 6633ft 94kts
08-Oct-17 20:39 34.972710 -118.142325 323 6796ft 92kts
08-Oct-17 20:40 34.990844 -118.161631 301 6993ft 84kts
08-Oct-17 20:41 35.006260 -118.183463 305 7120ft 75kts
08-Oct-17 20:42 35.018092 -118.203217 303 7102ft 71kts
08-Oct-17 20:43 35.030293 -118.224055 310 6940ft 74kts
08-Oct-17 20:44 35.046906 -118.237684 317 6680ft 67kts
08-Oct-17 20:45 35.062411 -118.251245 312 6479ft 68kts
08-Oct-17 20:46 35.073700 -118.270952 305 6127ft 67kts
08-Oct-17 20:47 35.084601 -118.288881 312 5954ft 64kts
08-Oct-17 20:48 35.093885 -118.307435 296 6162ft 68kts
08-Oct-17 20:49 35.100966 -118.329432 295 6240ft 78kts
08-Oct-17 20:50 35.108955 -118.349914 304 6522ft 62kts
08-Oct-17 20:51 35.114959 -118.372843 285 6594ft 79kts
08-Oct-17 20:52 35.127318 -118.389940 331 6945ft 72kts
08-Oct-17 20:53 35.145871 -118.398605 322 7354ft 70kts
08-Oct-17 20:54 35.161994 -118.417767 304 7518ft 84kts
08-Oct-17 20:55 35.175532 -118.441035 300 7905ft 83kts
08-Oct-17 20:56 35.191341 -118.464166 303 7612ft 86kts
08-Oct-17 20:57 35.204563 -118.489735 298 7233ft 93kts
08-Oct-17 20:58 35.219083 -118.515093 303 6897ft 87kts
08-Oct-17 20:59 35.232222 -118.538951 302 6847ft 81kts
08-Oct-17 21:00 35.243742 -118.562889 301 6797ft 82kts
08-Oct-17 21:01 35.256915 -118.585781 295 6670ft 81kts
08-Oct-17 21:02 35.270319 -118.608080 306 6738ft 84kts
08-Oct-17 21:03 35.283753 -118.629241 299 6920ft 74kts
08-Oct-17 21:04 35.293945 -118.651898 291 6959ft 78kts
08-Oct-17 21:05 35.301367 -118.677187 287 6778ft 96kts
08-Oct-17 21:06 35.312194 -118.709700 292 5844ft 105kts
08-Oct-17 21:07 35.322381 -118.741594 283 5116ft 105kts
08-Oct-17 21:08 35.329377 -118.774688 285 4031ft 86kts
08-Oct-17 21:09 35.337594 -118.802944 289 3410ft 87kts
08-Oct-17 21:10 35.342738 -118.831111 278 3032ft 89kts
08-Oct-17 21:11 35.347086 -118.859274 274 2677ft 98kts
08-Oct-17 21:12 35.351729 -118.886811 285 2563ft 80kts
08-Oct-17 21:13 35.357381 -118.911589 290 2610ft 72kts
08-Oct-17 21:14 35.364083 -118.935118 292 2635ft 73kts
08-Oct-17 21:15 35.374442 -118.956119 327 2938ft 77kts
08-Oct-17 21:16 35.390957 -118.960274 84 2913ft 60kts
08-Oct-17 21:17 35.390838 -118.971928 297 2847ft 77kts
08-Oct-17 21:18 35.399641 -118.996659 292 2366ft 86kts
08-Oct-17 21:19 35.408396 -119.022983 306 1439ft 73kts
08-Oct-17 21:20 35.420050 -119.039352 318 980ft 60kts
08-Oct-17 21:21 35.431269 -119.053087 319 537ft 47kts
08-Oct-17 21:22 35.437552 -119.060329 344 496ft 14kts
08-Oct-17 21:23 35.435415 -119.055905 133 496ft 21kts
08-Oct-17 21:24 35.431808 -119.051473 136 496ft 17kts
08-Oct-17 21:25 35.428485 -119.047219 54 496ft 4kts
08-Oct-17 21:26 35.429288 -119.046417 77 496ft 0kts
08-Oct-17 21:27 35.429288 -119.046417 77 496ft 0kts
08-Oct-17 21:28 35.429288 -119.046417 77 496ft 0kts
08-Oct-17 21:29 35.429288 -119.046417 77 496ft 0kts
08-Oct-17 21:30 35.429288 -119.046417 77 496ft 0kts

Navigation Log

Ident Type
1. KAPV Airport
2. KBFL Airport